Time;durP1;ratioP1;P1;durP2;ratioP2;P2;SDS_P1;SDS_P2;PMS_P1;PMS_P2;Temp;Humidity;BMP_temperature;BMP_pressure;BME280_temperature;BME280_humidity;BME280_pressure;Samples;Min_cycle;Max_cycle;Signal;HPM_P1;HPM_P2
2023/12/05 00:00:21;;;;;;;14.90;8.67;;;;;;;-0.84;100.00;99790.06;5022207;28;20205;-71
2023/12/05 00:02:47;;;;;;;15.00;8.93;;;;;;;-0.85;100.00;99777.03;5021120;28;20233;-70
2023/12/05 00:05:14;;;;;;;13.97;8.87;;;;;;;-0.85;100.00;99769.19;5014474;28;21198;-71
2023/12/05 00:07:42;;;;;;;14.67;8.97;;;;;;;-0.84;100.00;99774.38;5018879;28;20234;-71
2023/12/05 00:10:09;;;;;;;15.00;8.37;;;;;;;-0.82;100.00;99766.50;5014199;28;20297;-71
2023/12/05 00:12:36;;;;;;;16.67;9.47;;;;;;;-0.82;100.00;99753.41;5016256;28;20202;-71
2023/12/05 00:15:05;;;;;;;16.17;9.17;;;;;;;-0.82;100.00;99756.91;5019015;28;20211;-71
2023/12/05 00:17:31;;;;;;;14.13;8.93;;;;;;;-0.80;100.00;99754.22;5017348;28;20206;-71
2023/12/05 00:19:57;;;;;;;15.13;8.17;;;;;;;-0.79;100.00;99746.34;5018875;28;20933;-70
2023/12/05 00:22:26;;;;;;;17.13;9.70;;;;;;;-0.79;100.00;99748.97;5016828;28;20210;-71
2023/12/05 00:24:53;;;;;;;15.73;9.37;;;;;;;-0.82;100.00;99737.75;5019057;28;20217;-71
2023/12/05 00:27:19;;;;;;;14.97;9.37;;;;;;;-0.82;100.00;99746.44;5016658;28;20210;-71
2023/12/05 00:29:46;;;;;;;16.67;9.73;;;;;;;-0.81;100.00;99742.06;5017869;28;20218;-71
2023/12/05 00:32:14;;;;;;;16.57;9.63;;;;;;;-0.81;100.00;99742.91;5017574;28;20206;-69
2023/12/05 00:34:41;;;;;;;18.33;10.53;;;;;;;-0.83;100.00;99736.03;5021665;28;20589;-70
2023/12/05 00:37:07;;;;;;;15.70;9.20;;;;;;;-0.82;100.00;99735.97;5017744;28;20214;-71
2023/12/05 00:39:34;;;;;;;15.43;9.43;;;;;;;-0.78;100.00;99737.59;5018477;28;20226;-71
2023/12/05 00:42:00;;;;;;;20.77;10.60;;;;;;;-0.79;100.00;99735.88;5018437;28;20210;-70
2023/12/05 00:44:26;;;;;;;14.60;9.27;;;;;;;-0.79;100.00;99730.66;5018703;28;21655;-71
2023/12/05 00:46:53;;;;;;;14.23;8.70;;;;;;;-0.77;100.00;99730.63;5025212;28;20206;-71
2023/12/05 00:49:21;;;;;;;15.40;9.37;;;;;;;-0.79;100.00;99721.97;5020155;28;20325;-72
2023/12/05 00:51:47;;;;;;;20.30;10.67;;;;;;;-0.75;100.00;99721.81;5021535;28;20674;-71
2023/12/05 00:54:14;;;;;;;15.63;9.17;;;;;;;-0.72;100.00;99728.72;5024339;28;20756;-71
2023/12/05 00:56:40;;;;;;;15.50;10.13;;;;;;;-0.72;100.00;99715.66;5026632;28;20705;-71
2023/12/05 00:59:07;;;;;;;13.43;8.97;;;;;;;-0.68;100.00;99724.22;5021206;28;20306;-69
2023/12/05 01:01:33;;;;;;;19.73;10.40;;;;;;;-0.67;100.00;99725.94;5017811;28;20211;-71
2023/12/05 01:04:00;;;;;;;17.83;10.97;;;;;;;-0.63;100.00;99730.16;5021017;28;20214;-70
2023/12/05 01:06:28;;;;;;;18.73;10.40;;;;;;;-0.62;100.00;99724.03;5018403;28;20213;-71
2023/12/05 01:08:54;;;;;;;15.57;9.83;;;;;;;-0.63;100.00;99720.56;5018793;28;20234;-69
2023/12/05 01:11:21;;;;;;;19.70;10.17;;;;;;;-0.60;100.00;99727.44;5017071;28;20206;-71
2023/12/05 01:13:47;;;;;;;18.80;10.67;;;;;;;-0.61;100.00;99723.13;5019956;28;20769;-71
2023/12/05 01:16:14;;;;;;;16.97;11.03;;;;;;;-0.59;100.00;99726.56;5019749;28;20248;-71
2023/12/05 01:18:41;;;;;;;18.03;11.13;;;;;;;-0.59;100.00;99724.78;5019010;28;20251;-71
2023/12/05 01:21:08;;;;;;;19.80;10.77;;;;;;;-0.55;100.00;99728.16;5016704;28;20309;-71
2023/12/05 01:23:35;;;;;;;17.63;10.20;;;;;;;-0.53;100.00;99716.72;5019032;28;20210;-71
2023/12/05 01:26:02;;;;;;;18.97;10.77;;;;;;;-0.54;100.00;99716.81;5019543;28;20211;-71
2023/12/05 01:28:28;;;;;;;16.83;9.93;;;;;;;-0.54;100.00;99724.66;5019218;28;20237;-71
2023/12/05 01:30:55;;;;;;;18.77;10.90;;;;;;;-0.54;100.00;99706.34;5017639;28;20214;-69
2023/12/05 01:33:21;;;;;;;19.80;11.37;;;;;;;-0.53;100.00;99711.50;5009622;28;20221;-71
2023/12/05 01:35:48;;;;;;;20.53;11.47;;;;;;;-0.54;100.00;99709.81;5019646;28;20221;-71
2023/12/05 01:38:14;;;;;;;20.10;11.00;;;;;;;-0.52;100.00;99712.34;5018140;28;20226;-69
2023/12/05 01:40:42;;;;;;;15.97;10.10;;;;;;;-0.51;100.00;99711.44;5018895;28;20700;-72
2023/12/05 01:43:09;;;;;;;19.03;10.60;;;;;;;-0.50;100.00;99705.31;5017843;28;20202;-71
2023/12/05 01:45:35;;;;;;;17.83;10.83;;;;;;;-0.50;100.00;99706.16;5019053;28;20214;-71
2023/12/05 01:48:04;;;;;;;17.67;11.40;;;;;;;-0.49;100.00;99707.03;5018774;28;20237;-72
2023/12/05 01:50:32;;;;;;;20.07;12.40;;;;;;;-0.49;100.00;99702.66;5018613;28;20214;-72
2023/12/05 01:53:03;;;;;;;20.47;10.87;;;;;;;-0.46;100.00;99702.53;5018125;28;20289;-69
2023/12/05 01:55:30;;;;;;;17.00;10.90;;;;;;;-0.44;100.00;99705.13;5017645;28;20203;-71
2023/12/05 01:57:59;;;;;;;20.57;11.30;;;;;;;-0.41;100.00;99702.41;5020151;28;20229;-71
2023/12/05 02:00:27;;;;;;;18.30;11.30;;;;;;;-0.42;100.00;99698.06;5021738;28;20206;-71
2023/12/05 02:02:53;;;;;;;21.43;11.80;;;;;;;-0.41;100.00;99691.94;5018749;28;20209;-71
2023/12/05 02:05:20;;;;;;;21.13;11.73;;;;;;;-0.40;100.00;99694.50;5017301;28;20217;-71
2023/12/05 02:07:47;;;;;;;22.47;13.60;;;;;;;-0.38;100.00;99699.69;5018099;28;20209;-71
2023/12/05 02:10:13;;;;;;;22.77;12.10;;;;;;;-0.34;100.00;99696.03;5019945;28;20210;-71
2023/12/05 02:12:40;;;;;;;21.13;11.80;;;;;;;-0.35;100.00;99684.72;5020924;28;20210;-70
2023/12/05 02:15:09;;;;;;;20.13;12.10;;;;;;;-0.39;100.00;99690.97;5019074;28;20620;-71
2023/12/05 02:17:42;;;;;;;24.13;12.27;;;;;;;-0.39;100.00;99687.50;5015468;28;20203;-71
2023/12/05 02:20:15;;;;;;;19.43;12.30;;;;;;;-0.38;100.00;99679.63;5069423;22;20225;-73
2023/12/05 02:23:07;;;;;;;22.67;11.87;;;;;;;-0.40;100.00;99675.34;5058181;28;20927;-73
2023/12/05 02:25:47;;;;;;;23.23;11.80;;;;;;;-0.42;100.00;99674.53;5060044;28;20213;-73
2023/12/05 02:28:16;;;;;;;19.60;12.30;;;;;;;-0.43;100.00;99676.28;5062017;28;20834;-73
2023/12/05 02:30:43;;;;;;;21.37;12.30;;;;;;;-0.42;100.00;99671.91;5056121;28;20200;-73
2023/12/05 02:33:10;;;;;;;22.73;12.90;;;;;;;-0.43;100.00;99665.81;5058437;28;20278;-73
2023/12/05 02:35:37;;;;;;;23.87;13.27;;;;;;;-0.39;100.00;99658.72;5057697;28;20205;-73
2023/12/05 02:38:10;;;;;;;18.90;12.13;;;;;;;-0.38;100.00;99658.69;5060051;28;20565;-71
2023/12/05 02:40:41;;;;;;;19.90;11.63;;;;;;;-0.40;100.00;99655.25;5052964;28;20201;-73
2023/12/05 02:43:12;;;;;;;20.43;12.67;;;;;;;-0.41;100.00;99656.16;5058195;28;20205;-73
2023/12/05 02:45:41;;;;;;;24.97;12.97;;;;;;;-0.38;100.00;99652.59;5056546;28;20212;-73
2023/12/05 02:48:11;;;;;;;21.37;12.57;;;;;;;-0.39;100.00;99653.50;5061365;28;20208;-72
2023/12/05 02:50:37;;;;;;;27.77;13.73;;;;;;;-0.37;100.00;99654.31;5057133;28;20194;-72
2023/12/05 02:53:04;;;;;;;24.37;13.53;;;;;;;-0.37;100.00;99649.94;5058197;28;20588;-74
2023/12/05 02:55:30;;;;;;;21.00;12.70;;;;;;;-0.36;100.00;99643.75;5057237;28;20216;-75
2023/12/05 02:57:59;;;;;;;23.57;13.43;;;;;;;-0.36;100.00;99637.72;5058108;28;20204;-74
2023/12/05 03:00:26;;;;;;;20.37;13.00;;;;;;;-0.38;100.00;99643.00;5062534;28;20231;-75
2023/12/05 03:02:54;;;;;;;22.47;13.57;;;;;;;-0.39;100.00;99640.44;5056456;28;20563;-74
2023/12/05 03:05:20;;;;;;;23.13;14.03;;;;;;;-0.39;100.00;99638.66;5063320;28;20205;-75
2023/12/05 03:07:46;;;;;;;23.13;12.80;;;;;;;-0.37;100.00;99643.84;5062250;28;20213;-75
2023/12/05 03:10:13;;;;;;;24.00;12.97;;;;;;;-0.37;100.00;99636.00;5062268;28;20240;-73
2023/12/05 03:12:39;;;;;;;21.97;13.07;;;;;;;-0.36;100.00;99635.09;5058598;28;20217;-76
2023/12/05 03:15:08;;;;;;;20.23;12.50;;;;;;;-0.39;100.00;99636.06;5055074;28;20220;-75
2023/12/05 03:17:34;;;;;;;24.43;13.37;;;;;;;-0.39;100.00;99637.81;5054923;28;20208;-72
2023/12/05 03:20:02;;;;;;;25.60;14.10;;;;;;;-0.40;100.00;99639.56;5060307;28;20739;-76
2023/12/05 03:22:29;;;;;;;23.30;13.17;;;;;;;-0.35;100.00;99628.91;5057824;28;20660;-74
2023/12/05 03:24:55;;;;;;;20.63;12.50;;;;;;;-0.33;100.00;99629.72;5060690;28;20208;-77
2023/12/05 03:27:22;;;;;;;25.57;13.90;;;;;;;-0.31;100.00;99624.44;5058646;28;20204;-76
2023/12/05 03:29:48;;;;;;;24.40;14.00;;;;;;;-0.33;100.00;99623.63;5061633;28;20224;-77
2023/12/05 03:32:15;;;;;;;24.83;13.13;;;;;;;-0.35;100.00;99632.41;5051823;28;20216;-75
2023/12/05 03:34:41;;;;;;;22.30;13.30;;;;;;;-0.32;100.00;99631.44;5057124;28;20209;-77
2023/12/05 03:37:09;;;;;;;23.37;12.97;;;;;;;-0.31;100.00;99627.91;5058447;28;20683;-77
2023/12/05 03:39:36;;;;;;;23.27;12.73;;;;;;;-0.31;100.00;99620.06;5058821;28;20295;-76
2023/12/05 03:42:02;;;;;;;24.20;13.07;;;;;;;-0.28;100.00;99632.19;5058289;28;20212;-76
2023/12/05 03:44:28;;;;;;;25.17;13.70;;;;;;;-0.30;100.00;99620.91;5060182;28;20201;-76
2023/12/05 03:46:55;;;;;;;22.77;13.37;;;;;;;-0.29;100.00;99626.09;5058484;28;20197;-76
2023/12/05 03:49:21;;;;;;;24.33;13.33;;;;;;;-0.27;100.00;99628.66;5055151;28;20324;-76
2023/12/05 03:51:48;;;;;;;23.37;11.93;;;;;;;-0.29;100.00;99622.63;5056934;28;20209;-77
2023/12/05 03:54:16;;;;;;;25.00;13.27;;;;;;;-0.27;100.00;99629.53;5060346;28;20214;-77
2023/12/05 03:56:42;;;;;;;22.90;12.80;;;;;;;-0.28;100.00;99622.56;5061240;28;20672;-77
2023/12/05 03:59:09;;;;;;;24.93;12.67;;;;;;;-0.31;100.00;99620.06;5055533;28;20596;-77
2023/12/05 04:01:35;;;;;;;20.03;12.63;;;;;;;-0.29;100.00;99620.88;5060493;28;20215;-75
2023/12/05 04:04:02;;;;;;;22.30;12.57;;;;;;;-0.28;100.00;99619.97;5060305;28;20213;-78
2023/12/05 04:06:28;;;;;;;20.53;11.63;;;;;;;-0.26;100.00;99628.63;5059829;28;20401;-77
2023/12/05 04:08:54;;;;;;;21.43;12.83;;;;;;;-0.30;100.00;99621.78;5061659;28;20256;-77
2023/12/05 04:11:30;;;;;;;20.93;12.10;;;;;;;-0.28;100.00;99625.19;5056203;28;20198;-77
2023/12/05 04:13:57;;;;;;;19.50;11.60;;;;;;;-0.25;100.00;99627.72;5060310;28;20220;-76
2023/12/05 04:16:23;;;;;;;23.07;12.20;;;;;;;-0.25;100.00;99622.47;5068142;28;20577;-78
2023/12/05 04:18:50;;;;;;;19.70;11.07;;;;;;;-0.24;100.00;99616.34;5062088;28;20229;-78
2023/12/05 04:21:17;;;;;;;22.57;13.17;;;;;;;-0.24;100.00;99613.72;5060782;28;20292;-78
2023/12/05 04:23:44;;;;;;;22.13;12.20;;;;;;;-0.22;100.00;99618.91;5063328;28;20216;-77
2023/12/05 04:26:14;;;;;;;25.57;12.60;;;;;;;-0.24;100.00;99618.09;5064573;28;20208;-77
2023/12/05 04:28:42;;;;;;;24.13;13.03;;;;;;;-0.22;100.00;99619.75;5055813;28;20236;-77
2023/12/05 04:31:08;;;;;;;22.20;13.03;;;;;;;-0.25;100.00;99617.25;5062423;28;20374;-77
2023/12/05 04:33:35;;;;;;;23.30;11.90;;;;;;;-0.25;100.00;99616.38;5062540;28;20714;-77
2023/12/05 04:36:02;;;;;;;22.97;12.10;;;;;;;-0.25;100.00;99614.63;5061437;28;20205;-77
2023/12/05 04:38:28;;;;;;;23.33;12.37;;;;;;;-0.22;100.00;99611.06;5064514;28;20600;-76
2023/12/05 04:40:55;;;;;;;25.63;13.53;;;;;;;-0.20;100.00;99611.84;5062943;28;20204;-76
2023/12/05 04:43:22;;;;;;;23.53;11.97;;;;;;;-0.20;100.00;99615.31;5060313;28;20212;-76
2023/12/05 04:45:49;;;;;;;24.07;13.57;;;;;;;-0.21;100.00;99611.00;5064855;28;20550;-76
2023/12/05 04:48:17;;;;;;;22.47;12.17;;;;;;;-0.24;100.00;99613.72;5062694;28;20237;-76
2023/12/05 04:50:44;;;;;;;21.23;11.83;;;;;;;-0.21;100.00;99605.75;5056778;28;20589;-76
2023/12/05 04:53:10;;;;;;;20.37;12.50;;;;;;;-0.20;100.00;99614.47;5063458;28;20205;-76
2023/12/05 04:55:37;;;;;;;24.27;12.57;;;;;;;-0.20;100.00;99610.09;5060900;28;20256;-76
2023/12/05 04:58:03;;;;;;;23.67;12.83;;;;;;;-0.21;100.00;99611.00;5062548;28;20205;-75
2023/12/05 05:00:30;;;;;;;19.60;11.30;;;;;;;-0.22;100.00;99616.28;5061400;28;20201;-75
2023/12/05 05:02:58;;;;;;;20.90;12.07;;;;;;;-0.24;100.00;99613.72;5059045;28;20213;-75
2023/12/05 05:05:24;;;;;;;21.93;11.30;;;;;;;-0.20;100.00;99609.22;5062947;28;20205;-74
2023/12/05 05:07:50;;;;;;;22.23;12.53;;;;;;;-0.20;100.00;99604.84;5057023;28;20213;-75
2023/12/05 05:10:17;;;;;;;22.00;12.27;;;;;;;-0.21;100.00;99604.91;5061046;28;20240;-75
2023/12/05 05:12:43;;;;;;;17.57;11.27;;;;;;;-0.22;100.00;99608.44;5063749;28;20288;-73
2023/12/05 05:15:10;;;;;;;20.90;11.50;;;;;;;-0.22;100.00;99606.66;5062284;28;20212;-75
2023/12/05 05:17:36;;;;;;;20.73;11.60;;;;;;;-0.22;100.00;99605.81;5060008;28;20604;-75
2023/12/05 05:20:05;;;;;;;22.10;11.87;;;;;;;-0.23;100.00;99609.34;5058319;28;20736;-75
2023/12/05 05:22:32;;;;;;;16.70;9.93;;;;;;;-0.25;100.00;99609.38;5059324;28;20205;-75
2023/12/05 05:24:58;;;;;;;22.00;11.53;;;;;;;-0.27;100.00;99603.34;5061555;28;20216;-74
2023/12/05 05:27:25;;;;;;;21.50;11.50;;;;;;;-0.26;100.00;99602.44;5058726;28;20201;-74
2023/12/05 05:29:51;;;;;;;24.90;12.40;;;;;;;-0.24;100.00;99605.88;5056921;28;20388;-73
2023/12/05 05:32:17;;;;;;;16.70;10.10;;;;;;;-0.24;100.00;99608.47;5056801;28;20208;-74
2023/12/05 05:34:44;;;;;;;21.30;11.60;;;;;;;-0.27;100.00;99607.72;5058888;28;20211;-74
2023/12/05 05:37:12;;;;;;;21.60;11.53;;;;;;;-0.34;100.00;99607.09;5055995;28;20296;-74
2023/12/05 05:39:38;;;;;;;18.80;10.73;;;;;;;-0.37;100.00;99599.38;5060405;28;20222;-74
2023/12/05 05:42:05;;;;;;;23.80;12.37;;;;;;;-0.40;100.00;99596.88;5053872;28;20669;-74
2023/12/05 05:44:32;;;;;;;26.03;13.90;;;;;;;-0.39;100.00;99603.81;5055209;28;20239;-74
2023/12/05 05:46:58;;;;;;;25.87;12.20;;;;;;;-0.38;100.00;99608.13;5058143;28;20205;-74
2023/12/05 05:49:24;;;;;;;22.13;12.50;;;;;;;-0.39;100.00;99609.03;5059932;28;20232;-74
2023/12/05 05:51:51;;;;;;;24.17;12.93;;;;;;;-0.39;100.00;99606.41;5061091;28;20209;-75
2023/12/05 05:54:19;;;;;;;20.97;11.53;;;;;;;-0.41;100.00;99608.22;5059624;28;20215;-74
2023/12/05 05:56:45;;;;;;;21.20;11.30;;;;;;;-0.40;100.00;99605.56;5059742;28;20205;-74
2023/12/05 05:59:12;;;;;;;22.10;10.90;;;;;;;-0.42;100.00;99598.69;5057303;28;20496;-74
2023/12/05 06:01:38;;;;;;;19.20;11.50;;;;;;;-0.43;100.00;99602.19;5058818;28;20197;-74
2023/12/05 06:04:05;;;;;;;18.33;12.00;;;;;;;-0.40;100.00;99609.94;5060418;28;20211;-74
2023/12/05 06:06:32;;;;;;;20.93;11.23;;;;;;;-0.37;100.00;99612.47;5061771;28;20224;-74
2023/12/05 06:08:59;;;;;;;22.33;12.10;;;;;;;-0.43;100.00;99607.44;5056144;28;20611;-74
2023/12/05 06:11:27;;;;;;;20.93;11.27;;;;;;;-0.41;100.00;99600.38;5059309;28;20309;-75
2023/12/05 06:13:54;;;;;;;21.50;11.30;;;;;;;-0.45;100.00;99610.09;5058034;28;20585;-74
2023/12/05 06:16:21;;;;;;;22.33;11.63;;;;;;;-0.47;100.00;99608.44;5052210;28;20232;-73
2023/12/05 06:18:47;;;;;;;20.73;12.30;;;;;;;-0.46;100.00;99599.69;5055356;28;20610;-74
2023/12/05 06:21:14;;;;;;;22.37;12.13;;;;;;;-0.46;100.00;99607.53;5056236;28;20201;-74
2023/12/05 06:23:40;;;;;;;22.40;11.90;;;;;;;-0.45;100.00;99607.47;5058042;28;20202;-74
2023/12/05 06:26:07;;;;;;;20.97;11.70;;;;;;;-0.46;100.00;99600.53;5059827;28;20211;-74
2023/12/05 06:28:35;;;;;;;18.90;10.30;;;;;;;-0.44;100.00;99610.94;5058708;28;20221;-74
2023/12/05 06:31:01;;;;;;;22.53;12.87;;;;;;;-0.42;100.00;99606.53;5062826;28;20303;-74
2023/12/05 06:33:28;;;;;;;25.03;12.97;;;;;;;-0.42;100.00;99610.00;5058914;28;20201;-74
2023/12/05 06:35:54;;;;;;;21.50;11.87;;;;;;;-0.41;100.00;99614.31;5060981;28;20213;-75
2023/12/05 06:38:21;;;;;;;22.37;12.73;;;;;;;-0.39;100.00;99609.03;5060931;28;21349;-74
2023/12/05 06:40:48;;;;;;;22.87;12.63;;;;;;;-0.41;100.00;99610.84;5059741;28;20197;-74
2023/12/05 06:43:15;;;;;;;20.27;11.73;;;;;;;-0.40;100.00;99617.78;5062517;28;20198;-75
2023/12/05 06:45:43;;;;;;;22.77;12.83;;;;;;;-0.38;100.00;99613.34;5061136;28;20204;-75
2023/12/05 06:48:09;;;;;;;19.63;11.93;;;;;;;-0.36;100.00;99614.16;5060472;28;20200;-76
2023/12/05 06:50:36;;;;;;;24.17;13.57;;;;;;;-0.38;100.00;99614.22;5062613;28;20236;-75
2023/12/05 06:53:02;;;;;;;22.33;12.90;;;;;;;-0.36;100.00;99624.63;5061669;28;20494;-75
2023/12/05 06:55:28;;;;;;;23.93;13.47;;;;;;;-0.39;100.00;99620.34;5060683;28;20695;-77
2023/12/05 06:57:55;;;;;;;24.53;12.77;;;;;;;-0.38;100.00;99624.69;5060129;28;20205;-77
2023/12/05 07:00:22;;;;;;;24.50;13.30;;;;;;;-0.37;100.00;99620.31;5059064;28;20217;-77
2023/12/05 07:02:50;;;;;;;23.93;12.63;;;;;;;-0.34;100.00;99620.16;5060232;28;20293;-77
2023/12/05 07:05:16;;;;;;;24.23;12.93;;;;;;;-0.33;100.00;99613.19;5062491;28;20233;-77
2023/12/05 07:07:43;;;;;;;23.87;13.53;;;;;;;-0.35;100.00;99618.47;5066325;28;20646;-78
2023/12/05 07:10:09;;;;;;;23.53;13.20;;;;;;;-0.36;100.00;99630.69;5059272;28;20849;-77
2023/12/05 07:12:36;;;;;;;24.53;14.57;;;;;;;-0.37;100.00;99621.16;5060804;28;20197;-78
2023/12/05 07:15:03;;;;;;;23.70;13.13;;;;;;;-0.37;100.00;99629.00;5065158;28;20216;-78
2023/12/05 07:17:29;;;;;;;27.97;12.90;;;;;;;-0.35;100.00;99623.69;5068093;28;20201;-78
2023/12/05 07:19:57;;;;;;;19.93;12.23;;;;;;;-0.32;100.00;99630.56;5065980;28;20232;-77
2023/12/05 07:22:23;;;;;;;24.67;12.97;;;;;;;-0.33;100.00;99627.09;5066876;28;20209;-78
2023/12/05 07:24:50;;;;;;;23.43;13.07;;;;;;;-0.29;100.00;99631.34;5064813;28;20205;-78
2023/12/05 07:27:16;;;;;;;21.53;12.57;;;;;;;-0.24;100.00;99634.66;5065333;28;20209;-78
2023/12/05 07:29:43;;;;;;;25.53;12.87;;;;;;;-0.20;100.00;99632.78;5062509;28;20529;-78
2023/12/05 07:32:09;;;;;;;24.67;13.93;;;;;;;-0.23;100.00;99631.13;5061498;28;20216;-78
2023/12/05 07:34:35;;;;;;;24.13;12.87;;;;;;;-0.21;100.00;99631.94;5058163;28;20217;-77
2023/12/05 07:37:04;;;;;;;24.33;13.67;;;;;;;-0.16;100.00;99639.59;5065787;28;20209;-77
2023/12/05 07:39:31;;;;;;;29.03;14.50;;;;;;;-0.16;100.00;99639.59;5064226;28;20232;-78
2023/12/05 07:41:57;;;;;;;25.27;14.10;;;;;;;-0.19;100.00;99635.34;5063948;28;21006;-77
2023/12/05 07:44:24;;;;;;;23.57;13.57;;;;;;;-0.16;100.00;99642.22;5059063;28;20201;-77
2023/12/05 07:46:50;;;;;;;29.17;13.90;;;;;;;-0.18;100.00;99644.88;5058953;28;20209;-76
2023/12/05 07:49:17;;;;;;;26.93;13.40;;;;;;;-0.15;100.00;99642.16;5062684;28;20224;-78
2023/12/05 07:51:43;;;;;;;31.53;14.80;;;;;;;-0.16;100.00;99650.91;5068043;28;20231;-77
2023/12/05 07:54:11;;;;;;;21.83;13.37;;;;;;;-0.17;100.00;99651.81;5063618;28;20205;-78
2023/12/05 07:56:37;;;;;;;22.93;14.10;;;;;;;-0.16;100.00;99653.53;5061632;28;20684;-78
2023/12/05 07:59:04;;;;;;;32.53;14.70;;;;;;;-0.16;100.00;99653.53;5065076;28;20231;-78
2023/12/05 08:01:30;;;;;;;25.50;13.50;;;;;;;-0.12;100.00;99655.13;5064842;28;20208;-78
2023/12/05 08:03:57;;;;;;;27.47;14.47;;;;;;;-0.14;100.00;99651.72;5066071;28;20205;-78
2023/12/05 08:06:24;;;;;;;27.87;14.40;;;;;;;-0.15;100.00;99654.38;5065869;28;20205;-78
2023/12/05 08:08:51;;;;;;;28.07;13.90;;;;;;;-0.10;100.00;99655.09;5067808;28;20585;-78
2023/12/05 08:11:20;;;;;;;26.20;13.37;;;;;;;-0.08;100.00;99655.88;5066232;28;20275;-78
2023/12/05 08:13:47;;;;;;;31.50;14.67;;;;;;;-0.12;100.00;99652.53;5062902;28;20201;-78
2023/12/05 08:16:14;;;;;;;24.17;13.77;;;;;;;-0.11;100.00;99649.00;5065352;28;20256;-78
2023/12/05 08:18:40;;;;;;;26.47;14.30;;;;;;;-0.11;100.00;99651.63;5070049;28;20236;-76
2023/12/05 08:21:07;;;;;;;28.87;14.07;;;;;;;-0.09;100.00;99657.66;5057094;28;20806;-75
2023/12/05 08:23:34;;;;;;;24.30;14.30;;;;;;;-0.08;100.00;99651.50;5063070;28;20217;-75
2023/12/05 08:26:00;;;;;;;24.13;13.43;;;;;;;-0.04;100.00;99658.34;5064149;28;20209;-76
2023/12/05 08:28:29;;;;;;;29.87;13.67;;;;;;;-0.03;100.00;99665.28;5063651;28;20471;-75
2023/12/05 08:30:55;;;;;;;22.00;12.53;;;;;;;-0.04;100.00;99654.88;5062836;28;20707;-76
2023/12/05 08:33:22;;;;;;;27.50;13.23;;;;;;;0.00;100.00;99659.91;5055878;28;20225;-76
2023/12/05 08:35:49;;;;;;;25.23;14.03;;;;;;;-0.01;100.00;99663.47;5064344;28;20219;-76
2023/12/05 08:38:15;;;;;;;27.27;13.30;;;;;;;0.07;100.00;99665.81;5060791;28;20201;-76
2023/12/05 08:40:41;;;;;;;23.27;12.97;;;;;;;0.08;100.00;99661.41;5057485;28;20201;-76
2023/12/05 08:43:08;;;;;;;26.90;12.60;;;;;;;0.09;100.00;99669.22;5061876;28;20225;-76
2023/12/05 08:45:36;;;;;;;28.57;13.77;;;;;;;0.15;100.00;99670.78;5061194;28;20221;-76
2023/12/05 08:48:02;;;;;;;23.73;12.40;;;;;;;0.17;100.00;99668.97;5057466;28;20200;-74
2023/12/05 08:50:28;;;;;;;27.40;13.43;;;;;;;0.11;100.00;99669.16;5062074;28;20248;-76
2023/12/05 08:52:55;;;;;;;23.37;11.50;;;;;;;0.14;100.00;99671.69;5064045;28;20205;-76
2023/12/05 08:55:21;;;;;;;27.80;13.63;;;;;;;0.16;100.00;99669.88;5061379;28;20220;-75
2023/12/05 08:57:48;;;;;;;26.33;13.57;;;;;;;0.15;100.00;99663.78;5062845;28;20676;-76
2023/12/05 09:00:15;;;;;;;23.63;12.90;;;;;;;0.20;100.00;99667.06;5061661;28;20398;-76
2023/12/05 09:02:43;;;;;;;24.63;13.33;;;;;;;0.23;100.00;99666.09;5061473;28;20220;-76
2023/12/05 09:05:09;;;;;;;24.70;13.00;;;;;;;0.26;100.00;99664.22;5061164;28;20588;-75
2023/12/05 09:07:36;;;;;;;24.97;13.57;;;;;;;0.29;100.00;99665.88;5063187;28;20224;-76
2023/12/05 09:10:02;;;;;;;31.30;15.47;;;;;;;0.28;100.00;99665.00;5057712;28;20229;-75
2023/12/05 09:12:29;;;;;;;29.60;13.77;;;;;;;0.29;100.00;99673.72;5066509;28;20197;-77
2023/12/05 09:14:55;;;;;;;25.60;13.83;;;;;;;0.29;100.00;99666.72;5061189;28;20205;-76
2023/12/05 09:17:22;;;;;;;23.03;13.03;;;;;;;0.33;100.00;99672.72;5059856;28;20215;-75
2023/12/05 09:19:50;;;;;;;26.13;14.40;;;;;;;0.32;100.00;99679.72;5056314;28;20949;-77
2023/12/05 09:22:17;;;;;;;23.83;12.37;;;;;;;0.37;100.00;99684.75;5058628;28;20564;-76
2023/12/05 09:24:43;;;;;;;20.67;12.37;;;;;;;0.30;100.00;99675.44;5067634;28;20224;-76
2023/12/05 09:27:10;;;;;;;23.40;13.17;;;;;;;0.26;100.00;99674.69;5059448;28;20696;-75
2023/12/05 09:29:36;;;;;;;21.13;12.90;;;;;;;0.29;100.00;99681.59;5063738;28;20712;-77
2023/12/05 09:32:02;;;;;;;24.33;13.43;;;;;;;0.28;100.00;99687.72;5060998;28;20592;-77
2023/12/05 09:34:30;;;;;;;25.57;12.93;;;;;;;0.30;100.00;99691.16;5067807;28;20204;-77
2023/12/05 09:36:58;;;;;;;25.43;14.80;;;;;;;0.34;100.00;99687.50;5065213;28;20284;-76
2023/12/05 09:39:24;;;;;;;27.00;14.00;;;;;;;0.37;100.00;99682.13;5059607;28;20713;-76
2023/12/05 09:41:53;;;;;;;26.67;14.07;;;;;;;0.41;100.00;99677.66;5063752;28;20201;-77
2023/12/05 09:44:21;;;;;;;25.27;13.43;;;;;;;0.45;100.00;99674.88;5057056;28;20231;-76
2023/12/05 09:46:51;;;;;;;24.33;13.17;;;;;;;0.44;100.00;99680.16;5062838;28;20209;-76
2023/12/05 09:49:20;;;;;;;25.37;13.37;;;;;;;0.46;100.00;99679.19;5057580;28;20244;-76
2023/12/05 09:51:46;;;;;;;25.87;13.70;;;;;;;0.49;100.00;99680.84;5063276;28;20231;-76
2023/12/05 09:54:15;;;;;;;23.57;13.73;;;;;;;0.47;100.00;99675.66;5057108;28;20206;-74
2023/12/05 09:56:42;;;;;;;22.97;13.07;;;;;;;0.48;100.00;99682.59;5058554;28;20212;-77
2023/12/05 09:59:10;;;;;;;28.67;14.77;;;;;;;0.44;100.00;99680.16;5057302;28;20225;-77
2023/12/05 10:01:37;;;;;;;27.10;16.60;;;;;;;0.50;100.00;99679.94;5059098;28;20221;-77
2023/12/05 10:04:10;;;;;;;26.20;13.93;;;;;;;0.52;100.00;99673.72;5063031;28;20205;-76
2023/12/05 10:06:37;;;;;;;29.47;14.07;;;;;;;0.56;100.00;99671.81;5060760;28;20624;-76
2023/12/05 10:09:06;;;;;;;26.83;14.53;;;;;;;0.58;100.00;99678.72;5065050;28;20229;-78
2023/12/05 10:11:34;;;;;;;26.17;14.40;;;;;;;0.64;100.00;99675.88;5060354;28;20232;-77
2023/12/05 10:14:02;;;;;;;25.30;13.97;;;;;;;0.72;100.00;99674.75;5059904;28;20208;-77
2023/12/05 10:16:28;;;;;;;28.43;15.33;;;;;;;0.77;100.00;99675.38;5062070;28;20292;-76
2023/12/05 10:18:57;;;;;;;23.13;13.33;;;;;;;0.83;100.00;99677.78;5061141;28;20241;-77
2023/12/05 10:21:23;;;;;;;26.17;14.47;;;;;;;0.88;100.00;99674.06;5060636;28;20212;-77
2023/12/05 10:23:51;;;;;;;27.40;14.40;;;;;;;0.92;100.00;99674.78;5058983;28;20239;-76
2023/12/05 10:26:18;;;;;;;24.87;15.33;;;;;;;0.98;100.00;99670.16;5063791;28;20687;-76
2023/12/05 10:28:56;;;;;;;27.10;13.83;;;;;;;1.06;100.00;99669.88;5064126;28;20240;-76
2023/12/05 10:31:24;;;;;;;24.73;13.40;;;;;;;1.10;100.00;99665.31;5061224;28;20304;-76
2023/12/05 10:33:50;;;;;;;21.77;13.17;;;;;;;1.15;100.00;99666.84;5060519;28;20696;-76
2023/12/05 10:36:17;;;;;;;25.40;13.83;;;;;;;1.20;100.00;99662.28;5062854;28;20237;-76
2023/12/05 10:38:45;;;;;;;25.20;14.53;;;;;;;1.25;100.00;99659.47;5060385;28;20227;-75
2023/12/05 10:41:12;;;;;;;27.03;12.87;;;;;;;1.29;100.00;99654.03;5061577;28;20730;-74
2023/12/05 10:43:48;;;;;;;22.27;13.97;;;;;;;1.31;100.00;99660.06;5059482;28;20205;-73
2023/12/05 10:46:16;;;;;;;22.90;13.73;;;;;;;1.36;100.00;99659.88;5055326;28;20698;-74
2023/12/05 10:48:44;;;;;;;28.70;14.00;;;;;;;1.35;100.00;99656.41;5058746;28;20594;-74
2023/12/05 10:51:10;;;;;;;22.37;12.63;;;;;;;1.36;100.00;99657.25;5063680;28;20236;-74
2023/12/05 10:53:37;;;;;;;24.63;12.87;;;;;;;1.36;100.00;99652.00;5058149;28;20205;-74
2023/12/05 10:56:11;;;;;;;24.47;13.03;;;;;;;1.41;100.00;99655.31;5064451;28;20221;-74
2023/12/05 10:58:39;;;;;;;21.87;12.37;;;;;;;1.41;100.00;99643.97;5062937;28;20251;-74
2023/12/05 11:01:08;;;;;;;24.07;13.67;;;;;;;1.43;100.00;99653.47;5065007;28;20267;-75
2023/12/05 11:03:37;;;;;;;21.47;12.27;;;;;;;1.45;100.00;99648.13;5062676;28;20232;-74
2023/12/05 11:06:04;;;;;;;27.47;13.63;;;;;;;1.42;100.00;99653.53;5066484;28;20208;-75
2023/12/05 11:08:30;;;;;;;22.30;13.33;;;;;;;1.44;100.00;99654.28;5060073;28;20233;-75
2023/12/05 11:10:58;;;;;;;24.73;14.47;;;;;;;1.43;100.00;99657.88;5058154;28;20204;-75